sensor_id;sensor_type;location;lat;lon;timestamp;P1;durP1;ratioP1;P2;durP2;ratioP2
73841;SDS011;62184;52.006;5.924;2023-11-19T00:00:54;12.20;;;11.40;;
73841;SDS011;62184;52.006;5.924;2023-11-19T00:03:21;12.10;;;11.30;;
73841;SDS011;62184;52.006;5.924;2023-11-19T00:05:47;11.85;;;11.05;;
73841;SDS011;62184;52.006;5.924;2023-11-19T00:08:13;11.95;;;11.15;;
73841;SDS011;62184;52.006;5.924;2023-11-19T00:10:40;12.10;;;11.30;;
73841;SDS011;62184;52.006;5.924;2023-11-19T00:13:06;12.27;;;11.48;;
73841;SDS011;62184;52.006;5.924;2023-11-19T00:15:32;12.32;;;11.52;;
73841;SDS011;62184;52.006;5.924;2023-11-19T00:18:01;12.75;;;11.95;;
73841;SDS011;62184;52.006;5.924;2023-11-19T00:20:28;12.27;;;11.48;;
73841;SDS011;62184;52.006;5.924;2023-11-19T00:22:54;12.35;;;11.55;;
73841;SDS011;62184;52.006;5.924;2023-11-19T00:25:21;12.00;;;11.20;;
73841;SDS011;62184;52.006;5.924;2023-11-19T00:27:47;12.03;;;11.23;;
73841;SDS011;62184;52.006;5.924;2023-11-19T00:30:14;12.40;;;11.60;;
73841;SDS011;62184;52.006;5.924;2023-11-19T00:32:41;12.00;;;11.20;;
73841;SDS011;62184;52.006;5.924;2023-11-19T00:35:10;12.30;;;11.50;;
73841;SDS011;62184;52.006;5.924;2023-11-19T00:37:37;12.10;;;11.30;;
73841;SDS011;62184;52.006;5.924;2023-11-19T00:40:04;12.20;;;11.40;;
73841;SDS011;62184;52.006;5.924;2023-11-19T00:42:32;12.10;;;11.30;;
73841;SDS011;62184;52.006;5.924;2023-11-19T00:44:58;12.23;;;11.43;;
73841;SDS011;62184;52.006;5.924;2023-11-19T00:47:25;12.18;;;11.38;;
73841;SDS011;62184;52.006;5.924;2023-11-19T00:49:51;12.35;;;11.55;;
73841;SDS011;62184;52.006;5.924;2023-11-19T00:52:20;12.20;;;11.40;;
73841;SDS011;62184;52.006;5.924;2023-11-19T00:54:46;12.20;;;11.40;;
73841;SDS011;62184;52.006;5.924;2023-11-19T00:57:13;12.50;;;11.70;;
73841;SDS011;62184;52.006;5.924;2023-11-19T00:59:41;12.63;;;11.82;;
73841;SDS011;62184;52.006;5.924;2023-11-19T01:02:07;14.97;;;14.07;;
73841;SDS011;62184;52.006;5.924;2023-11-19T01:04:34;14.95;;;14.05;;
73841;SDS011;62184;52.006;5.924;2023-11-19T01:07:01;14.73;;;13.82;;
73841;SDS011;62184;52.006;5.924;2023-11-19T01:09:31;15.03;;;14.10;;
73841;SDS011;62184;52.006;5.924;2023-11-19T01:11:57;14.73;;;13.83;;
73841;SDS011;62184;52.006;5.924;2023-11-19T01:14:24;15.30;;;14.40;;
73841;SDS011;62184;52.006;5.924;2023-11-19T01:16:50;14.90;;;14.00;;
73841;SDS011;62184;52.006;5.924;2023-11-19T01:19:17;15.70;;;14.70;;
73841;SDS011;62184;52.006;5.924;2023-11-19T01:21:43;12.40;;;11.60;;
73841;SDS011;62184;52.006;5.924;2023-11-19T01:24:09;15.07;;;14.18;;
73841;SDS011;62184;52.006;5.924;2023-11-19T01:26:38;12.60;;;11.80;;
73841;SDS011;62184;52.006;5.924;2023-11-19T01:29:05;12.43;;;11.63;;
73841;SDS011;62184;52.006;5.924;2023-11-19T01:31:31;12.75;;;11.95;;
73841;SDS011;62184;52.006;5.924;2023-11-19T01:33:58;12.35;;;11.55;;
73841;SDS011;62184;52.006;5.924;2023-11-19T01:36:24;12.18;;;11.38;;
73841;SDS011;62184;52.006;5.924;2023-11-19T01:38:50;12.50;;;11.70;;
73841;SDS011;62184;52.006;5.924;2023-11-19T01:41:17;12.47;;;11.67;;
73841;SDS011;62184;52.006;5.924;2023-11-19T01:43:46;12.10;;;11.30;;
73841;SDS011;62184;52.006;5.924;2023-11-19T01:46:12;12.20;;;11.40;;
73841;SDS011;62184;52.006;5.924;2023-11-19T01:48:39;12.30;;;11.50;;
73841;SDS011;62184;52.006;5.924;2023-11-19T01:51:10;12.20;;;11.40;;
73841;SDS011;62184;52.006;5.924;2023-11-19T01:53:38;12.20;;;11.40;;
73841;SDS011;62184;52.006;5.924;2023-11-19T01:56:07;12.20;;;11.40;;
73841;SDS011;62184;52.006;5.924;2023-11-19T01:58:36;12.52;;;11.73;;
73841;SDS011;62184;52.006;5.924;2023-11-19T02:01:05;14.77;;;13.80;;
73841;SDS011;62184;52.006;5.924;2023-11-19T02:03:32;14.57;;;13.68;;
73841;SDS011;62184;52.006;5.924;2023-11-19T02:05:59;14.93;;;14.02;;
73841;SDS011;62184;52.006;5.924;2023-11-19T02:08:26;15.60;;;14.70;;
73841;SDS011;62184;52.006;5.924;2023-11-19T02:10:53;15.55;;;14.55;;
73841;SDS011;62184;52.006;5.924;2023-11-19T02:13:19;15.30;;;14.40;;
73841;SDS011;62184;52.006;5.924;2023-11-19T02:15:46;15.48;;;14.57;;
73841;SDS011;62184;52.006;5.924;2023-11-19T02:18:21;15.63;;;14.73;;
73841;SDS011;62184;52.006;5.924;2023-11-19T02:20:49;16.23;;;15.23;;
73841;SDS011;62184;52.006;5.924;2023-11-19T02:23:16;15.75;;;14.85;;
73841;SDS011;62184;52.006;5.924;2023-11-19T02:25:47;15.35;;;14.45;;
73841;SDS011;62184;52.006;5.924;2023-11-19T02:28:30;15.60;;;14.70;;
73841;SDS011;62184;52.006;5.924;2023-11-19T02:30:58;15.60;;;14.70;;
73841;SDS011;62184;52.006;5.924;2023-11-19T02:33:24;15.90;;;15.00;;
73841;SDS011;62184;52.006;5.924;2023-11-19T02:35:51;16.23;;;15.23;;
73841;SDS011;62184;52.006;5.924;2023-11-19T02:38:17;15.85;;;14.95;;
73841;SDS011;62184;52.006;5.924;2023-11-19T02:40:44;15.50;;;14.60;;
73841;SDS011;62184;52.006;5.924;2023-11-19T02:43:10;15.68;;;14.77;;
73841;SDS011;62184;52.006;5.924;2023-11-19T02:45:39;15.50;;;14.60;;
73841;SDS011;62184;52.006;5.924;2023-11-19T02:48:06;16.00;;;15.10;;
73841;SDS011;62184;52.006;5.924;2023-11-19T02:50:32;16.00;;;15.10;;
73841;SDS011;62184;52.006;5.924;2023-11-19T02:52:58;15.70;;;14.80;;
73841;SDS011;62184;52.006;5.924;2023-11-19T02:55:25;16.33;;;15.33;;
73841;SDS011;62184;52.006;5.924;2023-11-19T02:57:51;16.60;;;15.53;;
73841;SDS011;62184;52.006;5.924;2023-11-19T03:00:18;16.27;;;15.18;;
73841;SDS011;62184;52.006;5.924;2023-11-19T03:02:48;15.60;;;14.70;;
73841;SDS011;62184;52.006;5.924;2023-11-19T03:05:16;15.77;;;14.88;;
73841;SDS011;62184;52.006;5.924;2023-11-19T03:07:42;15.90;;;14.70;;
73841;SDS011;62184;52.006;5.924;2023-11-19T03:10:10;15.70;;;14.70;;
73841;SDS011;62184;52.006;5.924;2023-11-19T03:12:37;15.80;;;14.80;;
73841;SDS011;62184;52.006;5.924;2023-11-19T03:15:04;16.03;;;15.13;;
73841;SDS011;62184;52.006;5.924;2023-11-19T03:17:32;15.40;;;14.50;;
73841;SDS011;62184;52.006;5.924;2023-11-19T03:20:01;15.77;;;14.88;;
73841;SDS011;62184;52.006;5.924;2023-11-19T03:22:27;15.77;;;14.87;;
73841;SDS011;62184;52.006;5.924;2023-11-19T03:24:54;16.10;;;15.10;;
73841;SDS011;62184;52.006;5.924;2023-11-19T03:27:20;16.40;;;15.38;;
73841;SDS011;62184;52.006;5.924;2023-11-19T03:29:46;15.95;;;15.05;;
73841;SDS011;62184;52.006;5.924;2023-11-19T03:32:13;15.88;;;14.88;;
73841;SDS011;62184;52.006;5.924;2023-11-19T03:34:39;15.95;;;15.00;;
73841;SDS011;62184;52.006;5.924;2023-11-19T03:37:08;15.95;;;15.05;;
73841;SDS011;62184;52.006;5.924;2023-11-19T03:39:35;15.60;;;14.70;;
73841;SDS011;62184;52.006;5.924;2023-11-19T03:42:01;17.30;;;16.10;;
73841;SDS011;62184;52.006;5.924;2023-11-19T03:44:28;15.68;;;14.57;;
73841;SDS011;62184;52.006;5.924;2023-11-19T03:46:54;15.80;;;14.80;;
73841;SDS011;62184;52.006;5.924;2023-11-19T03:49:20;15.30;;;14.40;;
73841;SDS011;62184;52.006;5.924;2023-11-19T03:51:47;15.90;;;15.00;;
73841;SDS011;62184;52.006;5.924;2023-11-19T03:54:16;15.57;;;14.63;;
73841;SDS011;62184;52.006;5.924;2023-11-19T03:56:42;15.23;;;14.23;;
73841;SDS011;62184;52.006;5.924;2023-11-19T03:59:08;17.67;;;16.58;;
73841;SDS011;62184;52.006;5.924;2023-11-19T04:01:35;16.40;;;15.40;;
73841;SDS011;62184;52.006;5.924;2023-11-19T04:04:01;17.27;;;16.27;;
73841;SDS011;62184;52.006;5.924;2023-11-19T04:06:28;16.73;;;15.73;;
73841;SDS011;62184;52.006;5.924;2023-11-19T04:08:54;16.48;;;15.48;;
73841;SDS011;62184;52.006;5.924;2023-11-19T04:11:23;16.52;;;15.52;;
73841;SDS011;62184;52.006;5.924;2023-11-19T04:13:50;16.92;;;15.93;;
73841;SDS011;62184;52.006;5.924;2023-11-19T04:16:16;16.88;;;15.88;;
73841;SDS011;62184;52.006;5.924;2023-11-19T04:18:43;17.65;;;16.55;;
73841;SDS011;62184;52.006;5.924;2023-11-19T04:21:09;17.30;;;16.30;;
73841;SDS011;62184;52.006;5.924;2023-11-19T04:23:35;16.60;;;15.70;;
73841;SDS011;62184;52.006;5.924;2023-11-19T04:26:02;16.92;;;15.93;;
73841;SDS011;62184;52.006;5.924;2023-11-19T04:28:31;16.88;;;15.98;;
73841;SDS011;62184;52.006;5.924;2023-11-19T04:30:58;16.40;;;15.50;;
73841;SDS011;62184;52.006;5.924;2023-11-19T04:33:24;16.60;;;15.70;;
73841;SDS011;62184;52.006;5.924;2023-11-19T04:35:51;16.33;;;15.32;;
73841;SDS011;62184;52.006;5.924;2023-11-19T04:38:17;16.85;;;15.85;;
73841;SDS011;62184;52.006;5.924;2023-11-19T04:40:43;16.90;;;16.00;;
73841;SDS011;62184;52.006;5.924;2023-11-19T04:43:10;16.80;;;15.60;;
73841;SDS011;62184;52.006;5.924;2023-11-19T04:45:39;16.80;;;15.80;;
73841;SDS011;62184;52.006;5.924;2023-11-19T04:48:05;16.83;;;15.82;;
73841;SDS011;62184;52.006;5.924;2023-11-19T04:50:31;16.80;;;15.80;;
73841;SDS011;62184;52.006;5.924;2023-11-19T04:52:58;16.85;;;15.85;;
73841;SDS011;62184;52.006;5.924;2023-11-19T04:55:24;16.15;;;15.25;;
73841;SDS011;62184;52.006;5.924;2023-11-19T04:57:50;17.33;;;16.23;;
73841;SDS011;62184;52.006;5.924;2023-11-19T05:00:20;17.60;;;16.60;;
73841;SDS011;62184;52.006;5.924;2023-11-19T05:02:49;17.52;;;16.48;;
73841;SDS011;62184;52.006;5.924;2023-11-19T05:05:16;16.63;;;15.73;;
73841;SDS011;62184;52.006;5.924;2023-11-19T05:07:42;17.80;;;16.80;;
73841;SDS011;62184;52.006;5.924;2023-11-19T05:10:09;17.48;;;16.48;;
73841;SDS011;62184;52.006;5.924;2023-11-19T05:12:35;17.70;;;16.70;;
73841;SDS011;62184;52.006;5.924;2023-11-19T05:15:02;17.70;;;16.70;;
73841;SDS011;62184;52.006;5.924;2023-11-19T05:17:30;17.35;;;16.35;;
73841;SDS011;62184;52.006;5.924;2023-11-19T05:19:59;17.35;;;16.35;;
73841;SDS011;62184;52.006;5.924;2023-11-19T05:22:25;17.52;;;16.38;;
73841;SDS011;62184;52.006;5.924;2023-11-19T05:24:52;17.35;;;16.35;;
73841;SDS011;62184;52.006;5.924;2023-11-19T05:27:18;17.00;;;16.00;;
73841;SDS011;62184;52.006;5.924;2023-11-19T05:29:45;17.77;;;16.77;;
73841;SDS011;62184;52.006;5.924;2023-11-19T05:32:11;17.52;;;16.52;;
73841;SDS011;62184;52.006;5.924;2023-11-19T05:34:37;17.23;;;16.23;;
73841;SDS011;62184;52.006;5.924;2023-11-19T05:37:06;18.10;;;17.00;;
73841;SDS011;62184;52.006;5.924;2023-11-19T05:39:33;17.55;;;16.45;;
73841;SDS011;62184;52.006;5.924;2023-11-19T05:41:59;18.80;;;17.20;;
73841;SDS011;62184;52.006;5.924;2023-11-19T05:44:26;17.77;;;16.77;;
73841;SDS011;62184;52.006;5.924;2023-11-19T05:46:52;17.98;;;16.92;;
73841;SDS011;62184;52.006;5.924;2023-11-19T05:49:19;17.52;;;16.52;;
73841;SDS011;62184;52.006;5.924;2023-11-19T05:51:45;17.02;;;16.02;;
73841;SDS011;62184;52.006;5.924;2023-11-19T05:54:14;15.93;;;15.02;;
73841;SDS011;62184;52.006;5.924;2023-11-19T05:56:41;14.40;;;13.50;;
73841;SDS011;62184;52.006;5.924;2023-11-19T05:59:07;13.95;;;13.05;;
73841;SDS011;62184;52.006;5.924;2023-11-19T06:01:33;14.70;;;13.70;;
73841;SDS011;62184;52.006;5.924;2023-11-19T06:04:00;13.70;;;12.83;;
73841;SDS011;62184;52.006;5.924;2023-11-19T06:06:28;13.53;;;12.73;;
73841;SDS011;62184;52.006;5.924;2023-11-19T06:08:54;13.40;;;12.60;;
73841;SDS011;62184;52.006;5.924;2023-11-19T06:11:23;13.10;;;12.30;;
73841;SDS011;62184;52.006;5.924;2023-11-19T06:13:50;13.10;;;12.30;;
73841;SDS011;62184;52.006;5.924;2023-11-19T06:16:16;13.10;;;12.20;;
73841;SDS011;62184;52.006;5.924;2023-11-19T06:18:43;14.20;;;13.23;;
73841;SDS011;62184;52.006;5.924;2023-11-19T06:21:09;13.52;;;12.70;;
73841;SDS011;62184;52.006;5.924;2023-11-19T06:23:36;14.60;;;13.60;;
73841;SDS011;62184;52.006;5.924;2023-11-19T06:26:02;14.57;;;13.45;;
73841;SDS011;62184;52.006;5.924;2023-11-19T06:28:32;14.40;;;13.40;;
73841;SDS011;62184;52.006;5.924;2023-11-19T06:30:58;13.88;;;12.98;;
73841;SDS011;62184;52.006;5.924;2023-11-19T06:33:25;13.85;;;12.95;;
73841;SDS011;62184;52.006;5.924;2023-11-19T06:35:51;13.63;;;12.73;;
73841;SDS011;62184;52.006;5.924;2023-11-19T06:38:18;14.25;;;13.35;;
73841;SDS011;62184;52.006;5.924;2023-11-19T06:40:44;14.25;;;13.35;;
73841;SDS011;62184;52.006;5.924;2023-11-19T06:43:11;14.48;;;13.50;;
73841;SDS011;62184;52.006;5.924;2023-11-19T06:45:40;14.32;;;13.43;;
73841;SDS011;62184;52.006;5.924;2023-11-19T06:48:06;13.65;;;12.82;;
73841;SDS011;62184;52.006;5.924;2023-11-19T06:50:33;13.90;;;13.00;;
73841;SDS011;62184;52.006;5.924;2023-11-19T06:52:59;13.57;;;12.67;;
73841;SDS011;62184;52.006;5.924;2023-11-19T06:55:26;14.00;;;13.10;;
73841;SDS011;62184;52.006;5.924;2023-11-19T06:57:52;13.40;;;12.60;;
73841;SDS011;62184;52.006;5.924;2023-11-19T07:00:18;13.43;;;12.57;;
73841;SDS011;62184;52.006;5.924;2023-11-19T07:02:47;14.25;;;13.35;;
73841;SDS011;62184;52.006;5.924;2023-11-19T07:05:14;13.80;;;12.90;;
73841;SDS011;62184;52.006;5.924;2023-11-19T07:07:40;13.98;;;13.07;;
73841;SDS011;62184;52.006;5.924;2023-11-19T07:10:07;14.45;;;13.55;;
73841;SDS011;62184;52.006;5.924;2023-11-19T07:12:34;14.20;;;13.30;;
73841;SDS011;62184;52.006;5.924;2023-11-19T07:15:00;14.07;;;13.18;;
73841;SDS011;62184;52.006;5.924;2023-11-19T07:17:26;14.73;;;13.82;;
73841;SDS011;62184;52.006;5.924;2023-11-19T07:19:55;14.15;;;13.25;;
73841;SDS011;62184;52.006;5.924;2023-11-19T07:22:22;15.00;;;14.10;;
73841;SDS011;62184;52.006;5.924;2023-11-19T07:24:48;14.80;;;13.90;;
73841;SDS011;62184;52.006;5.924;2023-11-19T07:27:15;14.93;;;13.83;;
73841;SDS011;62184;52.006;5.924;2023-11-19T07:29:43;15.73;;;14.73;;
73841;SDS011;62184;52.006;5.924;2023-11-19T07:32:09;16.83;;;15.73;;
73841;SDS011;62184;52.006;5.924;2023-11-19T07:34:36;15.80;;;14.80;;
73841;SDS011;62184;52.006;5.924;2023-11-19T07:37:05;16.10;;;15.10;;
73841;SDS011;62184;52.006;5.924;2023-11-19T07:39:31;15.90;;;14.90;;
73841;SDS011;62184;52.006;5.924;2023-11-19T07:41:58;15.73;;;14.73;;
73841;SDS011;62184;52.006;5.924;2023-11-19T07:44:24;15.73;;;14.73;;
73841;SDS011;62184;52.006;5.924;2023-11-19T07:46:51;15.40;;;14.30;;
73841;SDS011;62184;52.006;5.924;2023-11-19T07:49:17;15.38;;;14.38;;
73841;SDS011;62184;52.006;5.924;2023-11-19T07:51:43;15.70;;;14.70;;
73841;SDS011;62184;52.006;5.924;2023-11-19T07:54:12;16.20;;;15.10;;
73841;SDS011;62184;52.006;5.924;2023-11-19T07:56:39;15.90;;;14.90;;
73841;SDS011;62184;52.006;5.924;2023-11-19T07:59:06;16.25;;;15.25;;
73841;SDS011;62184;52.006;5.924;2023-11-19T08:01:32;15.85;;;14.85;;
73841;SDS011;62184;52.006;5.924;2023-11-19T08:03:58;15.57;;;14.57;;
73841;SDS011;62184;52.006;5.924;2023-11-19T08:06:25;15.88;;;14.88;;
73841;SDS011;62184;52.006;5.924;2023-11-19T08:08:52;15.93;;;14.73;;
73841;SDS011;62184;52.006;5.924;2023-11-19T08:11:21;15.53;;;14.53;;
73841;SDS011;62184;52.006;5.924;2023-11-19T08:13:47;16.90;;;15.55;;
73841;SDS011;62184;52.006;5.924;2023-11-19T08:16:13;15.40;;;14.40;;
73841;SDS011;62184;52.006;5.924;2023-11-19T08:18:41;15.90;;;14.80;;
73841;SDS011;62184;52.006;5.924;2023-11-19T08:21:08;15.70;;;14.70;;
73841;SDS011;62184;52.006;5.924;2023-11-19T08:23:35;15.95;;;14.85;;
73841;SDS011;62184;52.006;5.924;2023-11-19T08:26:02;17.50;;;16.40;;
73841;SDS011;62184;52.006;5.924;2023-11-19T08:28:32;16.00;;;15.00;;
73841;SDS011;62184;52.006;5.924;2023-11-19T08:30:59;16.02;;;15.02;;
73841;SDS011;62184;52.006;5.924;2023-11-19T08:33:26;16.48;;;15.38;;
73841;SDS011;62184;52.006;5.924;2023-11-19T08:35:52;16.27;;;15.27;;
73841;SDS011;62184;52.006;5.924;2023-11-19T08:38:19;16.33;;;15.32;;
73841;SDS011;62184;52.006;5.924;2023-11-19T08:40:45;15.80;;;14.80;;
73841;SDS011;62184;52.006;5.924;2023-11-19T08:43:12;16.33;;;15.27;;
73841;SDS011;62184;52.006;5.924;2023-11-19T08:45:41;15.93;;;14.82;;
73841;SDS011;62184;52.006;5.924;2023-11-19T08:48:07;15.40;;;14.40;;
73841;SDS011;62184;52.006;5.924;2023-11-19T08:50:33;15.60;;;14.50;;
73841;SDS011;62184;52.006;5.924;2023-11-19T08:53:00;14.90;;;13.90;;
73841;SDS011;62184;52.006;5.924;2023-11-19T08:55:26;15.60;;;14.50;;
73841;SDS011;62184;52.006;5.924;2023-11-19T08:57:52;14.50;;;13.60;;
73841;SDS011;62184;52.006;5.924;2023-11-19T09:00:19;15.00;;;13.90;;
73841;SDS011;62184;52.006;5.924;2023-11-19T09:02:48;14.43;;;13.53;;
73841;SDS011;62184;52.006;5.924;2023-11-19T09:05:15;15.30;;;14.30;;
73841;SDS011;62184;52.006;5.924;2023-11-19T09:07:41;14.60;;;13.70;;
73841;SDS011;62184;52.006;5.924;2023-11-19T09:10:08;14.50;;;13.60;;
73841;SDS011;62184;52.006;5.924;2023-11-19T09:12:35;15.05;;;14.05;;
73841;SDS011;62184;52.006;5.924;2023-11-19T09:15:02;15.43;;;14.43;;
73841;SDS011;62184;52.006;5.924;2023-11-19T09:17:28;15.23;;;14.20;;
73841;SDS011;62184;52.006;5.924;2023-11-19T09:19:57;15.30;;;14.30;;
73841;SDS011;62184;52.006;5.924;2023-11-19T09:22:24;15.18;;;14.18;;
73841;SDS011;62184;52.006;5.924;2023-11-19T09:24:50;15.13;;;14.13;;
73841;SDS011;62184;52.006;5.924;2023-11-19T09:27:16;15.10;;;14.10;;
73841;SDS011;62184;52.006;5.924;2023-11-19T09:29:43;16.40;;;15.30;;
73841;SDS011;62184;52.006;5.924;2023-11-19T09:32:09;16.57;;;15.27;;
73841;SDS011;62184;52.006;5.924;2023-11-19T09:34:36;16.10;;;15.00;;
73841;SDS011;62184;52.006;5.924;2023-11-19T09:37:05;15.30;;;14.30;;
73841;SDS011;62184;52.006;5.924;2023-11-19T09:39:31;16.07;;;15.07;;
73841;SDS011;62184;52.006;5.924;2023-11-19T09:41:57;15.60;;;14.60;;
73841;SDS011;62184;52.006;5.924;2023-11-19T09:44:24;15.18;;;14.13;;
73841;SDS011;62184;52.006;5.924;2023-11-19T09:46:52;16.60;;;15.10;;
73841;SDS011;62184;52.006;5.924;2023-11-19T09:49:20;15.23;;;14.23;;
73841;SDS011;62184;52.006;5.924;2023-11-19T09:51:52;15.48;;;14.48;;
73841;SDS011;62184;52.006;5.924;2023-11-19T09:54:21;15.75;;;14.75;;
73841;SDS011;62184;52.006;5.924;2023-11-19T09:56:48;15.73;;;14.73;;
73841;SDS011;62184;52.006;5.924;2023-11-19T09:59:15;15.60;;;14.55;;
73841;SDS011;62184;52.006;5.924;2023-11-19T10:01:42;15.93;;;14.93;;
73841;SDS011;62184;52.006;5.924;2023-11-19T10:04:10;15.68;;;14.68;;
73841;SDS011;62184;52.006;5.924;2023-11-19T10:06:42;15.80;;;14.68;;
73841;SDS011;62184;52.006;5.924;2023-11-19T10:09:08;15.40;;;14.40;;
73841;SDS011;62184;52.006;5.924;2023-11-19T10:11:37;15.88;;;14.88;;
73841;SDS011;62184;52.006;5.924;2023-11-19T10:14:04;15.00;;;13.98;;
73841;SDS011;62184;52.006;5.924;2023-11-19T10:16:30;15.25;;;14.25;;
73841;SDS011;62184;52.006;5.924;2023-11-19T10:19:00;15.20;;;14.20;;
73841;SDS011;62184;52.006;5.924;2023-11-19T10:21:27;15.10;;;14.10;;
73841;SDS011;62184;52.006;5.924;2023-11-19T10:23:55;15.10;;;14.00;;
73841;SDS011;62184;52.006;5.924;2023-11-19T10:26:23;15.27;;;14.27;;
73841;SDS011;62184;52.006;5.924;2023-11-19T10:28:52;14.70;;;13.77;;
73841;SDS011;62184;52.006;5.924;2023-11-19T10:31:19;15.37;;;14.37;;
73841;SDS011;62184;52.006;5.924;2023-11-19T10:33:46;16.17;;;15.00;;
73841;SDS011;62184;52.006;5.924;2023-11-19T10:36:13;15.60;;;14.60;;
73841;SDS011;62184;52.006;5.924;2023-11-19T10:38:39;15.20;;;14.20;;
73841;SDS011;62184;52.006;5.924;2023-11-19T10:41:26;16.13;;;15.13;;
73841;SDS011;62184;52.006;5.924;2023-11-19T10:43:56;15.48;;;14.48;;
73841;SDS011;62184;52.006;5.924;2023-11-19T10:46:22;15.63;;;14.63;;
73841;SDS011;62184;52.006;5.924;2023-11-19T10:49:01;15.75;;;14.75;;
73841;SDS011;62184;52.006;5.924;2023-11-19T10:51:28;15.70;;;14.70;;
73841;SDS011;62184;52.006;5.924;2023-11-19T10:53:57;15.02;;;14.02;;
73841;SDS011;62184;52.006;5.924;2023-11-19T10:56:29;14.50;;;13.60;;
73841;SDS011;62184;52.006;5.924;2023-11-19T10:59:01;15.93;;;14.82;;
73841;SDS011;62184;52.006;5.924;2023-11-19T11:01:32;15.70;;;14.60;;
73841;SDS011;62184;52.006;5.924;2023-11-19T11:04:10;15.20;;;14.20;;
73841;SDS011;62184;52.006;5.924;2023-11-19T11:06:40;14.93;;;13.93;;
73841;SDS011;62184;52.006;5.924;2023-11-19T11:09:07;15.07;;;14.10;;
73841;SDS011;62184;52.006;5.924;2023-11-19T11:11:36;14.87;;;13.87;;
73841;SDS011;62184;52.006;5.924;2023-11-19T11:14:06;14.60;;;13.70;;
73841;SDS011;62184;52.006;5.924;2023-11-19T11:16:38;15.18;;;14.18;;
73841;SDS011;62184;52.006;5.924;2023-11-19T11:19:09;15.07;;;14.07;;
73841;SDS011;62184;52.006;5.924;2023-11-19T11:21:36;15.20;;;14.30;;
73841;SDS011;62184;52.006;5.924;2023-11-19T11:24:23;15.25;;;14.25;;
73841;SDS011;62184;52.006;5.924;2023-11-19T11:30:39;16.17;;;15.07;;
73841;SDS011;62184;52.006;5.924;2023-11-19T11:33:31;15.20;;;14.20;;
73841;SDS011;62184;52.006;5.924;2023-11-19T11:36:20;15.75;;;14.75;;
73841;SDS011;62184;52.006;5.924;2023-11-19T11:38:48;16.10;;;15.10;;
73841;SDS011;62184;52.006;5.924;2023-11-19T11:41:16;15.57;;;14.57;;
73841;SDS011;62184;52.006;5.924;2023-11-19T11:43:44;14.70;;;13.80;;
73841;SDS011;62184;52.006;5.924;2023-11-19T11:49:26;14.47;;;13.57;;
73841;SDS011;62184;52.006;5.924;2023-11-19T11:51:57;14.80;;;13.90;;
73841;SDS011;62184;52.006;5.924;2023-11-19T11:54:28;14.52;;;13.63;;
73841;SDS011;62184;52.006;5.924;2023-11-19T11:59:43;14.90;;;13.80;;
73841;SDS011;62184;52.006;5.924;2023-11-19T12:02:16;14.43;;;13.52;;
73841;SDS011;62184;52.006;5.924;2023-11-19T12:04:48;14.60;;;13.70;;
73841;SDS011;62184;52.006;5.924;2023-11-19T12:07:17;15.35;;;14.30;;
73841;SDS011;62184;52.006;5.924;2023-11-19T12:09:48;14.98;;;14.07;;
73841;SDS011;62184;52.006;5.924;2023-11-19T12:12:18;14.80;;;13.90;;
73841;SDS011;62184;52.006;5.924;2023-11-19T12:15:00;14.55;;;13.65;;
73841;SDS011;62184;52.006;5.924;2023-11-19T12:20:26;15.35;;;14.43;;
73841;SDS011;62184;52.006;5.924;2023-11-19T12:22:53;15.18;;;14.27;;
73841;SDS011;62184;52.006;5.924;2023-11-19T12:25:20;14.90;;;14.00;;
73841;SDS011;62184;52.006;5.924;2023-11-19T12:27:47;15.13;;;14.23;;
73841;SDS011;62184;52.006;5.924;2023-11-19T12:30:17;14.60;;;13.70;;
73841;SDS011;62184;52.006;5.924;2023-11-19T12:32:44;14.60;;;13.70;;
73841;SDS011;62184;52.006;5.924;2023-11-19T12:35:14;14.68;;;13.77;;
73841;SDS011;62184;52.006;5.924;2023-11-19T12:37:41;14.68;;;13.77;;
73841;SDS011;62184;52.006;5.924;2023-11-19T12:40:15;14.85;;;13.95;;
73841;SDS011;62184;52.006;5.924;2023-11-19T12:42:43;14.77;;;13.88;;
73841;SDS011;62184;52.006;5.924;2023-11-19T12:45:10;15.05;;;14.15;;
73841;SDS011;62184;52.006;5.924;2023-11-19T12:47:37;14.40;;;13.50;;
73841;SDS011;62184;52.006;5.924;2023-11-19T12:50:05;14.90;;;14.00;;
73841;SDS011;62184;52.006;5.924;2023-11-19T12:52:36;15.02;;;14.13;;
73841;SDS011;62184;52.006;5.924;2023-11-19T12:55:03;15.68;;;14.77;;
73841;SDS011;62184;52.006;5.924;2023-11-19T12:57:38;15.07;;;14.17;;
73841;SDS011;62184;52.006;5.924;2023-11-19T13:00:06;15.60;;;14.70;;
73841;SDS011;62184;52.006;5.924;2023-11-19T13:02:46;14.15;;;13.32;;
73841;SDS011;62184;52.006;5.924;2023-11-19T13:08:04;15.80;;;14.43;;
73841;SDS011;62184;52.006;5.924;2023-11-19T13:10:33;14.38;;;13.52;;
73841;SDS011;62184;52.006;5.924;2023-11-19T13:13:16;14.43;;;13.53;;
73841;SDS011;62184;52.006;5.924;2023-11-19T13:15:43;14.75;;;13.85;;
73841;SDS011;62184;52.006;5.924;2023-11-19T13:18:09;14.80;;;13.90;;
73841;SDS011;62184;52.006;5.924;2023-11-19T13:20:36;15.27;;;14.35;;
73841;SDS011;62184;52.006;5.924;2023-11-19T13:23:05;14.85;;;13.95;;
73841;SDS011;62184;52.006;5.924;2023-11-19T13:25:32;14.80;;;13.90;;
73841;SDS011;62184;52.006;5.924;2023-11-19T13:27:59;15.10;;;14.20;;
73841;SDS011;62184;52.006;5.924;2023-11-19T13:30:26;16.40;;;14.70;;
73841;SDS011;62184;52.006;5.924;2023-11-19T13:32:53;15.27;;;14.37;;
73841;SDS011;62184;52.006;5.924;2023-11-19T13:35:19;15.15;;;14.25;;
73841;SDS011;62184;52.006;5.924;2023-11-19T13:37:46;14.00;;;13.20;;
73841;SDS011;62184;52.006;5.924;2023-11-19T13:40:15;13.57;;;12.77;;
73841;SDS011;62184;52.006;5.924;2023-11-19T13:42:42;14.10;;;13.30;;
73841;SDS011;62184;52.006;5.924;2023-11-19T13:45:09;14.07;;;13.27;;
73841;SDS011;62184;52.006;5.924;2023-11-19T13:47:37;13.73;;;12.93;;
73841;SDS011;62184;52.006;5.924;2023-11-19T13:50:04;14.00;;;13.20;;
73841;SDS011;62184;52.006;5.924;2023-11-19T13:52:31;13.55;;;12.75;;
73841;SDS011;62184;52.006;5.924;2023-11-19T13:54:58;14.10;;;13.05;;
73841;SDS011;62184;52.006;5.924;2023-11-19T13:57:27;13.65;;;12.85;;
73841;SDS011;62184;52.006;5.924;2023-11-19T13:59:56;13.90;;;13.07;;
73841;SDS011;62184;52.006;5.924;2023-11-19T14:02:22;14.45;;;13.55;;
73841;SDS011;62184;52.006;5.924;2023-11-19T14:04:49;14.03;;;13.13;;
73841;SDS011;62184;52.006;5.924;2023-11-19T14:07:15;13.97;;;13.17;;
73841;SDS011;62184;52.006;5.924;2023-11-19T14:09:41;13.73;;;12.93;;
73841;SDS011;62184;52.006;5.924;2023-11-19T14:12:08;13.65;;;12.85;;
73841;SDS011;62184;52.006;5.924;2023-11-19T14:14:37;14.80;;;13.90;;
73841;SDS011;62184;52.006;5.924;2023-11-19T14:17:04;14.60;;;13.80;;
73841;SDS011;62184;52.006;5.924;2023-11-19T14:19:30;14.00;;;13.20;;
73841;SDS011;62184;52.006;5.924;2023-11-19T14:21:57;14.67;;;13.80;;
73841;SDS011;62184;52.006;5.924;2023-11-19T14:24:23;14.43;;;13.47;;
73841;SDS011;62184;52.006;5.924;2023-11-19T14:26:49;14.17;;;13.37;;
73841;SDS011;62184;52.006;5.924;2023-11-19T14:29:16;14.30;;;13.50;;
73841;SDS011;62184;52.006;5.924;2023-11-19T14:31:45;14.18;;;13.35;;
73841;SDS011;62184;52.006;5.924;2023-11-19T14:34:11;14.17;;;13.37;;
73841;SDS011;62184;52.006;5.924;2023-11-19T14:36:37;15.20;;;14.30;;
73841;SDS011;62184;52.006;5.924;2023-11-19T14:39:04;15.02;;;14.23;;